Terminal Aerodrome Forecast
Issued by NWS

Home | Current Version | Previous Version | Text Only | Print | Product List | Glossary On
Versions: 1 2 3 4 5 6 7 8 9 10 11 12 13 14 15
000
FTUS45 KREV 110012 AAA
TAFTVL
TAF AMD
KTVL 110012Z 1100/1124 20010KT 3SM RA BR FEW010 OVC035
     FM110300 20011G20KT 5SM -SHRA BKN035 BKN045
     FM110700 18007KT P6SM SCT040=

USA.gov is the U.S. government's official web portal to all federal, state and local government web resources and services.